Time;durP1;ratioP1;P1;durP2;ratioP2;P2;SDS_P1;SDS_P2;PMS_P1;PMS_P2;Temp;Humidity;BMP_temperature;BMP_pressure;BME280_temperature;BME280_humidity;BME280_pressure;Samples;Min_cycle;Max_cycle;Signal;HPM_P1;HPM_P2
2022/10/24 00:02:00;;;;;;;3.67;1.35;;;;;;;;;;4955781;29;20118;-79
2022/10/24 00:04:25;;;;;;;2.60;1.48;;;;;;;;;;4956876;28;20110;-78
2022/10/24 00:06:50;;;;;;;2.30;1.23;;;;;;;;;;4956710;28;20059;-79
2022/10/24 00:09:16;;;;;;;2.35;1.30;;;;;;;;;;4956971;28;20513;-79
2022/10/24 00:11:42;;;;;;;2.15;1.35;;;;;;;;;;4955939;29;20030;-79
2022/10/24 00:14:07;;;;;;;3.35;1.33;;;;;;;;;;4955427;28;20176;-79
2022/10/24 00:16:34;;;;;;;2.70;1.40;;;;;;;;;;4957096;28;20390;-79
2022/10/24 00:19:00;;;;;;;10.68;1.20;;;;;;;;;;4955694;29;20027;-79
2022/10/24 00:21:25;;;;;;;5.35;1.85;;;;;;;;;;4955258;29;20044;-79
2022/10/24 00:23:51;;;;;;;3.35;1.40;;;;;;;;;;4939985;29;20039;-79
2022/10/24 00:26:16;;;;;;;4.80;1.65;;;;;;;;;;4939794;29;20031;-79
2022/10/24 00:28:42;;;;;;;2.40;1.35;;;;;;;;;;4940224;28;20031;-78
2022/10/24 00:31:12;;;;;;;2.65;1.50;;;;;;;;;;4939119;29;20030;-79
2022/10/24 00:33:37;;;;;;;3.92;1.48;;;;;;;;;;4955734;29;20188;-79
2022/10/24 00:36:03;;;;;;;4.32;1.88;;;;;;;;;;4955394;29;20125;-79
2022/10/24 00:38:28;;;;;;;5.35;1.50;;;;;;;;;;4955278;29;20462;-80
2022/10/24 00:40:54;;;;;;;9.48;1.30;;;;;;;;;;4955220;29;20063;-79
2022/10/24 00:43:22;;;;;;;8.23;1.40;;;;;;;;;;4956074;28;20106;-77
2022/10/24 00:45:57;;;;;;;5.95;1.60;;;;;;;;;;4954635;28;20113;-80
2022/10/24 00:48:32;;;;;;;7.10;1.50;;;;;;;;;;4954436;29;20031;-79
2022/10/24 00:51:02;;;;;;;4.95;1.55;;;;;;;;;;4954458;29;20041;-79
2022/10/24 00:53:29;;;;;;;8.05;1.48;;;;;;;;;;4956128;28;20054;-80
2022/10/24 00:55:57;;;;;;;2.45;1.27;;;;;;;;;;4954651;28;20482;-79
2022/10/24 00:58:25;;;;;;;1.98;1.40;;;;;;;;;;4955044;29;20455;-79
2022/10/24 01:00:50;;;;;;;3.80;1.60;;;;;;;;;;4954261;29;20043;-79
2022/10/24 01:03:16;;;;;;;2.47;1.40;;;;;;;;;;4954384;28;20031;-79
2022/10/24 01:05:57;;;;;;;3.03;1.50;;;;;;;;;;4954938;29;20463;-79
2022/10/24 01:08:45;;;;;;;3.50;1.90;;;;;;;;;;4955659;28;20027;-79
2022/10/24 01:11:32;;;;;;;5.97;1.55;;;;;;;;;;4954256;29;20478;-79
2022/10/24 01:14:08;;;;;;;4.88;1.38;;;;;;;;;;4955760;28;20046;-79
2022/10/24 01:17:29;;;;;;;2.25;1.40;;;;;;;;;;4954309;29;20030;-79
2022/10/24 01:20:19;;;;;;;1.98;1.33;;;;;;;;;;4953294;29;20027;-78
2022/10/24 01:22:47;;;;;;;7.18;1.60;;;;;;;;;;4953130;29;20051;-78
2022/10/24 01:25:50;;;;;;;3.50;1.60;;;;;;;;;;4937345;29;20027;-79
2022/10/24 01:28:40;;;;;;;2.67;1.25;;;;;;;;;;4953073;28;20486;-78
2022/10/24 01:31:12;;;;;;;4.75;1.70;;;;;;;;;;4953260;29;20031;-79
2022/10/24 01:33:50;;;;;;;1.98;1.33;;;;;;;;;;4937394;29;20031;-79
2022/10/24 01:36:39;;;;;;;2.10;1.40;;;;;;;;;;4937126;29;20560;-79
2022/10/24 01:39:09;;;;;;;4.28;1.92;;;;;;;;;;4948770;28;20090;-79
2022/10/24 01:41:34;;;;;;;2.42;1.35;;;;;;;;;;4937221;29;20198;-79
2022/10/24 01:44:04;;;;;;;7.45;1.75;;;;;;;;;;4937247;29;20465;-78
2022/10/24 01:46:34;;;;;;;3.83;1.55;;;;;;;;;;4937060;29;20039;-79
2022/10/24 01:49:16;;;;;;;5.50;1.75;;;;;;;;;;4937101;29;20146;-79
2022/10/24 01:51:43;;;;;;;2.78;1.60;;;;;;;;;;4936854;29;20038;-78
2022/10/24 01:54:08;;;;;;;5.90;1.65;;;;;;;;;;4938173;29;20036;-79
2022/10/24 01:56:34;;;;;;;3.92;1.48;;;;;;;;;;4954051;29;20031;-79
2022/10/24 01:59:07;;;;;;;3.03;1.30;;;;;;;;;;4956570;28;20510;-79
2022/10/24 02:01:34;;;;;;;3.47;1.63;;;;;;;;;;4941858;28;20032;-78
2022/10/24 02:04:03;;;;;;;4.38;1.60;;;;;;;;;;4957819;29;20513;-79
2022/10/24 02:06:32;;;;;;;2.58;1.40;;;;;;;;;;4959028;28;20114;-78
2022/10/24 02:09:04;;;;;;;4.20;1.48;;;;;;;;;;4941566;29;20058;-78
2022/10/24 02:11:30;;;;;;;4.50;1.50;;;;;;;;;;4941884;29;20023;-78
2022/10/24 02:13:59;;;;;;;6.05;1.60;;;;;;;;;;4957639;29;20046;-78
2022/10/24 02:16:24;;;;;;;3.53;1.30;;;;;;;;;;4957515;28;20114;-78
2022/10/24 02:18:52;;;;;;;4.85;1.80;;;;;;;;;;4941491;29;20130;-78
2022/10/24 02:21:28;;;;;;;5.05;1.40;;;;;;;;;;4941394;29;20418;-79
2022/10/24 02:24:20;;;;;;;4.30;1.48;;;;;;;;;;4958934;28;20114;-78
2022/10/24 02:26:48;;;;;;;4.32;1.55;;;;;;;;;;4957264;28;20489;-79
2022/10/24 02:29:20;;;;;;;2.40;1.40;;;;;;;;;;4957692;29;20130;-79
2022/10/24 02:31:52;;;;;;;6.38;1.60;;;;;;;;;;4941151;29;20427;-78
2022/10/24 02:34:18;;;;;;;3.85;1.70;;;;;;;;;;4957486;29;20027;-78
2022/10/24 02:36:45;;;;;;;2.80;1.50;;;;;;;;;;4941426;29;20031;-79
2022/10/24 02:39:11;;;;;;;5.68;1.55;;;;;;;;;;4957148;29;20039;-79
2022/10/24 02:41:38;;;;;;;3.45;1.50;;;;;;;;;;4956976;29;20054;-79
2022/10/24 02:44:05;;;;;;;3.25;1.50;;;;;;;;;;4941040;29;20127;-79
2022/10/24 02:46:31;;;;;;;7.55;1.73;;;;;;;;;;4958416;28;20482;-78
2022/10/24 02:48:59;;;;;;;3.70;1.50;;;;;;;;;;4957297;29;20080;-78
2022/10/24 02:51:28;;;;;;;4.05;1.70;;;;;;;;;;4957104;29;20027;-79
2022/10/24 02:53:54;;;;;;;5.00;1.75;;;;;;;;;;4956858;29;20486;-79
2022/10/24 02:56:20;;;;;;;5.72;1.88;;;;;;;;;;4956922;29;20031;-78
2022/10/24 02:58:45;;;;;;;5.38;1.67;;;;;;;;;;4940667;28;20122;-79
2022/10/24 03:01:10;;;;;;;3.75;1.75;;;;;;;;;;4958380;28;20031;-78
2022/10/24 03:03:36;;;;;;;4.53;1.80;;;;;;;;;;4940889;29;20055;-78
2022/10/24 03:06:02;;;;;;;4.70;1.60;;;;;;;;;;4956528;28;20078;-78
2022/10/24 03:08:27;;;;;;;1.83;1.40;;;;;;;;;;4958050;28;20162;-79
2022/10/24 03:10:53;;;;;;;2.70;1.58;;;;;;;;;;4955523;28;20031;-78
2022/10/24 03:13:18;;;;;;;3.33;1.40;;;;;;;;;;4956843;29;20031;-78
2022/10/24 03:15:43;;;;;;;4.00;1.60;;;;;;;;;;4956412;28;20460;-78
2022/10/24 03:18:09;;;;;;;4.15;1.50;;;;;;;;;;4957856;28;20027;-78
2022/10/24 03:20:34;;;;;;;3.08;1.40;;;;;;;;;;4940206;28;20039;-78
2022/10/24 03:23:00;;;;;;;4.10;1.48;;;;;;;;;;4956764;29;20031;-78
2022/10/24 03:25:25;;;;;;;5.68;1.60;;;;;;;;;;4940379;28;20035;-78
2022/10/24 03:27:50;;;;;;;4.20;1.50;;;;;;;;;;4958060;28;20063;-78
2022/10/24 03:30:16;;;;;;;8.30;1.70;;;;;;;;;;4957937;28;20498;-78
2022/10/24 03:32:41;;;;;;;6.97;1.67;;;;;;;;;;4956222;29;20019;-78
2022/10/24 03:35:07;;;;;;;3.20;1.63;;;;;;;;;;4957625;28;20462;-78
2022/10/24 03:37:32;;;;;;;5.10;1.55;;;;;;;;;;4957676;28;20063;-79
2022/10/24 03:39:58;;;;;;;6.05;1.80;;;;;;;;;;4956334;29;20027;-79
2022/10/24 03:42:23;;;;;;;3.65;1.50;;;;;;;;;;4956120;29;20028;-78
2022/10/24 03:44:49;;;;;;;2.72;1.50;;;;;;;;;;4956041;29;20028;-79
2022/10/24 03:47:14;;;;;;;2.20;1.50;;;;;;;;;;4955968;29;20497;-78
2022/10/24 03:49:39;;;;;;;3.60;2.10;;;;;;;;;;4939843;29;20037;-78
2022/10/24 03:52:05;;;;;;;4.60;1.45;;;;;;;;;;4957421;28;20386;-78
2022/10/24 03:54:30;;;;;;;4.00;1.70;;;;;;;;;;4955814;29;20027;-78
2022/10/24 03:56:56;;;;;;;3.90;1.70;;;;;;;;;;4955752;28;20066;-78
2022/10/24 03:59:21;;;;;;;5.35;1.60;;;;;;;;;;4955534;28;20082;-78
2022/10/24 04:01:47;;;;;;;4.40;1.52;;;;;;;;;;4939416;28;20130;-79
2022/10/24 04:04:12;;;;;;;2.58;1.50;;;;;;;;;;4957648;28;20035;-78
2022/10/24 04:06:39;;;;;;;2.08;1.40;;;;;;;;;;4955887;29;20031;-78
2022/10/24 04:09:05;;;;;;;4.47;1.60;;;;;;;;;;4955923;29;20094;-78
2022/10/24 04:11:30;;;;;;;3.55;1.52;;;;;;;;;;4955805;29;20031;-78
2022/10/24 04:13:56;;;;;;;5.30;1.90;;;;;;;;;;4939769;28;20038;-78
2022/10/24 04:16:22;;;;;;;5.38;1.65;;;;;;;;;;4955771;28;20074;-78
2022/10/24 04:18:48;;;;;;;3.45;1.52;;;;;;;;;;4955824;29;20171;-78
2022/10/24 04:21:14;;;;;;;2.63;1.35;;;;;;;;;;4955350;28;20122;-78
2022/10/24 04:23:41;;;;;;;3.58;1.40;;;;;;;;;;4955919;29;20065;-78
2022/10/24 04:26:07;;;;;;;8.35;1.50;;;;;;;;;;4957329;28;20034;-79
2022/10/24 04:28:32;;;;;;;4.70;1.95;;;;;;;;;;4939724;29;20400;-79
2022/10/24 04:30:58;;;;;;;3.85;1.30;;;;;;;;;;4955203;28;20038;-79
2022/10/24 04:33:23;;;;;;;4.03;1.42;;;;;;;;;;4939208;28;20471;-78
2022/10/24 04:35:50;;;;;;;3.08;1.55;;;;;;;;;;4956497;28;20035;-78
2022/10/24 04:38:16;;;;;;;6.85;1.45;;;;;;;;;;4955466;29;20066;-79
2022/10/24 04:40:52;;;;;;;7.32;1.80;;;;;;;;;;4955376;29;20035;-79
2022/10/24 04:43:19;;;;;;;2.38;1.38;;;;;;;;;;4955075;29;20450;-80
2022/10/24 04:45:45;;;;;;;9.40;2.40;;;;;;;;;;4939107;28;20041;-81
2022/10/24 04:48:10;;;;;;;6.57;2.53;;;;;;;;;;4956625;28;20062;-79
2022/10/24 04:50:36;;;;;;;14.95;2.58;;;;;;;;;;4938880;29;20411;-78
2022/10/24 04:53:02;;;;;;;11.00;2.38;;;;;;;;;;4955216;28;20043;-79
2022/10/24 04:55:27;;;;;;;10.05;2.85;;;;;;;;;;4955077;29;20419;-79
2022/10/24 04:57:53;;;;;;;9.85;2.65;;;;;;;;;;4956112;28;20027;-78
2022/10/24 05:00:18;;;;;;;10.90;2.42;;;;;;;;;;4955966;28;20051;-79
2022/10/24 05:02:44;;;;;;;13.63;2.47;;;;;;;;;;4938931;29;20115;-80
2022/10/24 05:05:09;;;;;;;8.15;2.55;;;;;;;;;;4938868;28;20035;-81
2022/10/24 05:07:35;;;;;;;10.20;2.50;;;;;;;;;;4955997;28;20394;-79
2022/10/24 05:10:00;;;;;;;11.07;2.60;;;;;;;;;;4954736;28;20445;-79
2022/10/24 05:12:25;;;;;;;9.82;2.60;;;;;;;;;;4938995;28;20034;-79
2022/10/24 05:14:51;;;;;;;17.92;3.20;;;;;;;;;;4955851;28;20434;-79
2022/10/24 05:17:16;;;;;;;10.88;2.63;;;;;;;;;;4954590;28;20045;-79
2022/10/24 05:19:41;;;;;;;11.98;2.40;;;;;;;;;;4954718;29;20086;-79
2022/10/24 05:22:07;;;;;;;15.85;2.67;;;;;;;;;;4954728;29;20405;-79
2022/10/24 05:24:32;;;;;;;12.10;2.50;;;;;;;;;;4938550;28;20059;-81
2022/10/24 05:26:58;;;;;;;14.02;2.38;;;;;;;;;;4952293;29;20035;-79
2022/10/24 05:29:24;;;;;;;11.90;2.50;;;;;;;;;;4947886;28;20125;-79
2022/10/24 05:31:49;;;;;;;11.90;2.25;;;;;;;;;;4940903;29;20026;-79
2022/10/24 05:34:15;;;;;;;18.15;2.30;;;;;;;;;;4954907;28;20031;-79
2022/10/24 05:36:40;;;;;;;9.60;2.08;;;;;;;;;;4948318;28;20034;-79
2022/10/24 05:39:06;;;;;;;8.07;2.03;;;;;;;;;;4955314;28;20127;-79
2022/10/24 05:41:31;;;;;;;8.90;2.00;;;;;;;;;;4954462;29;20038;-79
2022/10/24 05:43:57;;;;;;;7.20;2.22;;;;;;;;;;4955535;28;20043;-79
2022/10/24 05:46:22;;;;;;;6.05;1.80;;;;;;;;;;4955717;28;20062;-79
2022/10/24 05:48:47;;;;;;;6.78;1.80;;;;;;;;;;4954548;29;20106;-79
2022/10/24 05:51:13;;;;;;;8.60;1.92;;;;;;;;;;4954341;29;20027;-79
2022/10/24 05:53:38;;;;;;;9.13;1.50;;;;;;;;;;4954107;28;20035;-79
2022/10/24 05:56:05;;;;;;;6.75;1.42;;;;;;;;;;4938136;28;20028;-79
2022/10/24 05:58:30;;;;;;;4.80;1.42;;;;;;;;;;4938274;28;20042;-79
2022/10/24 06:00:56;;;;;;;8.23;1.90;;;;;;;;;;4953917;29;20055;-79
2022/10/24 06:03:22;;;;;;;10.23;1.80;;;;;;;;;;4954674;29;20050;-79
2022/10/24 06:05:47;;;;;;;9.02;2.08;;;;;;;;;;4954069;29;20061;-79
2022/10/24 06:08:13;;;;;;;4.85;1.60;;;;;;;;;;4953952;29;20035;-79
2022/10/24 06:10:38;;;;;;;9.43;1.70;;;;;;;;;;4955248;28;20106;-79
2022/10/24 06:13:04;;;;;;;4.53;1.52;;;;;;;;;;4953954;29;20093;-79
2022/10/24 06:15:29;;;;;;;7.43;1.60;;;;;;;;;;4954147;29;20027;-79
2022/10/24 06:17:54;;;;;;;6.35;1.77;;;;;;;;;;4954992;28;20082;-79
2022/10/24 06:20:20;;;;;;;7.55;1.30;;;;;;;;;;4955569;28;20031;-78
2022/10/24 06:22:47;;;;;;;4.95;1.67;;;;;;;;;;4953858;29;20126;-79
2022/10/24 06:25:13;;;;;;;4.80;1.50;;;;;;;;;;4955316;28;20035;-79
2022/10/24 06:27:39;;;;;;;10.10;1.67;;;;;;;;;;4937873;29;20035;-79
2022/10/24 06:30:05;;;;;;;5.32;1.50;;;;;;;;;;4954078;29;20038;-79
2022/10/24 06:32:31;;;;;;;8.15;1.52;;;;;;;;;;4953811;29;20030;-79
2022/10/24 06:34:56;;;;;;;10.40;1.60;;;;;;;;;;4954008;29;20043;-79
2022/10/24 06:37:21;;;;;;;11.52;1.58;;;;;;;;;;4953800;28;20471;-79
2022/10/24 06:39:47;;;;;;;4.00;1.75;;;;;;;;;;4954227;29;20047;-79
2022/10/24 06:42:13;;;;;;;3.65;1.40;;;;;;;;;;4953860;28;20138;-79
2022/10/24 06:44:38;;;;;;;6.70;1.40;;;;;;;;;;4955863;28;20491;-79
2022/10/24 06:47:04;;;;;;;5.93;1.88;;;;;;;;;;4957227;28;20028;-79
2022/10/24 06:49:30;;;;;;;3.60;1.50;;;;;;;;;;4958110;28;20031;-79
2022/10/24 06:51:55;;;;;;;5.15;1.33;;;;;;;;;;4959359;28;20437;-78
2022/10/24 06:54:21;;;;;;;4.00;1.70;;;;;;;;;;4958669;29;20039;-79
2022/10/24 06:56:46;;;;;;;5.00;1.70;;;;;;;;;;4973374;28;20043;-78
2022/10/24 06:59:15;;;;;;;9.98;1.55;;;;;;;;;;4956279;29;20422;-78
2022/10/24 07:01:41;;;;;;;5.07;1.55;;;;;;;;;;4957541;28;20027;-78
2022/10/24 07:04:07;;;;;;;8.40;1.50;;;;;;;;;;4956346;28;20031;-78
2022/10/24 07:06:33;;;;;;;8.27;1.50;;;;;;;;;;4956501;29;20027;-79
2022/10/24 07:08:59;;;;;;;8.68;1.67;;;;;;;;;;4956999;29;20037;-78
2022/10/24 07:11:26;;;;;;;4.82;1.52;;;;;;;;;;4956728;29;20027;-78
2022/10/24 07:13:51;;;;;;;4.10;1.55;;;;;;;;;;4956365;29;20035;-78
2022/10/24 07:16:17;;;;;;;6.32;1.63;;;;;;;;;;4956328;29;20078;-78
2022/10/24 07:18:43;;;;;;;6.97;1.45;;;;;;;;;;4956277;29;20037;-78
2022/10/24 07:21:21;;;;;;;6.20;2.58;;;;;;;;;;4956049;29;20070;-78
2022/10/24 07:23:46;;;;;;;6.25;1.42;;;;;;;;;;4940073;29;20446;-78
2022/10/24 07:26:14;;;;;;;5.93;1.70;;;;;;;;;;4956166;29;20031;-79
2022/10/24 07:28:41;;;;;;;5.97;1.35;;;;;;;;;;4940156;28;20134;-78
2022/10/24 07:31:07;;;;;;;6.60;1.67;;;;;;;;;;4955904;29;20034;-79
2022/10/24 07:33:33;;;;;;;4.10;1.52;;;;;;;;;;4956248;29;20471;-79
2022/10/24 07:35:59;;;;;;;7.10;1.98;;;;;;;;;;4940800;28;20034;-81
2022/10/24 07:38:24;;;;;;;18.05;1.98;;;;;;;;;;4955479;29;20031;-81
2022/10/24 07:40:50;;;;;;;24.90;2.08;;;;;;;;;;4940323;29;20546;-81
2022/10/24 07:43:16;;;;;;;6.78;1.75;;;;;;;;;;4940441;28;20032;-81
2022/10/24 07:45:42;;;;;;;5.05;1.77;;;;;;;;;;4944285;28;20113;-80
2022/10/24 07:48:07;;;;;;;6.60;1.63;;;;;;;;;;4959008;28;20054;-80
2022/10/24 07:50:34;;;;;;;13.85;1.83;;;;;;;;;;4976461;28;20038;-81
2022/10/24 07:52:59;;;;;;;6.70;1.63;;;;;;;;;;4975706;28;20023;-81
2022/10/24 07:55:25;;;;;;;6.45;1.50;;;;;;;;;;4976983;28;20111;-80
2022/10/24 07:57:50;;;;;;;8.15;1.90;;;;;;;;;;4959528;28;20022;-80
2022/10/24 08:00:16;;;;;;;7.10;1.35;;;;;;;;;;4959601;28;20106;-81
2022/10/24 08:02:41;;;;;;;7.18;2.08;;;;;;;;;;4977295;28;20033;-80
2022/10/24 08:05:09;;;;;;;8.80;1.30;;;;;;;;;;4959127;28;20041;-80
2022/10/24 08:07:35;;;;;;;7.68;1.90;;;;;;;;;;4959139;28;20041;-81
2022/10/24 08:10:00;;;;;;;11.75;1.85;;;;;;;;;;4973033;28;20482;-81
2022/10/24 08:12:26;;;;;;;4.18;1.35;;;;;;;;;;4959586;28;20450;-83
2022/10/24 08:14:53;;;;;;;4.47;1.38;;;;;;;;;;4959520;28;20039;-81
2022/10/24 08:17:18;;;;;;;6.13;1.50;;;;;;;;;;4975387;28;20034;-81
2022/10/24 08:19:44;;;;;;;5.30;1.73;;;;;;;;;;4978703;28;20047;-80
2022/10/24 08:22:09;;;;;;;9.13;1.90;;;;;;;;;;4979383;28;20035;-80
2022/10/24 08:24:35;;;;;;;9.73;1.48;;;;;;;;;;4962119;28;20037;-81
2022/10/24 08:27:01;;;;;;;8.68;1.83;;;;;;;;;;4979638;28;20081;-81
2022/10/24 08:29:26;;;;;;;5.13;1.30;;;;;;;;;;4976908;28;20171;-81
2022/10/24 08:31:53;;;;;;;7.97;1.73;;;;;;;;;;4976193;28;20019;-80
2022/10/24 08:34:19;;;;;;;7.05;1.30;;;;;;;;;;4975775;28;20089;-81
2022/10/24 08:36:45;;;;;;;8.88;1.58;;;;;;;;;;4959559;28;20034;-81
2022/10/24 08:39:11;;;;;;;6.45;1.63;;;;;;;;;;4962323;28;20114;-82
2022/10/24 08:41:46;;;;;;;8.52;1.80;;;;;;;;;;4956418;29;20249;-81
2022/10/24 08:44:50;;;;;;;6.28;1.38;;;;;;;;;;4955903;28;20082;-81
2022/10/24 08:47:28;;;;;;;7.40;1.75;;;;;;;;;;4975244;28;20064;-80
2022/10/24 08:50:05;;;;;;;4.97;1.38;;;;;;;;;;4960486;28;20042;-80
2022/10/24 08:52:43;;;;;;;7.57;1.20;;;;;;;;;;4974290;28;20043;-81
2022/10/24 08:55:22;;;;;;;10.85;1.95;;;;;;;;;;4958107;28;20078;-80
2022/10/24 08:57:53;;;;;;;7.95;1.42;;;;;;;;;;4958000;28;20525;-81
2022/10/24 09:00:27;;;;;;;4.18;1.60;;;;;;;;;;4958196;28;20075;-81
2022/10/24 09:03:37;;;;;;;6.10;1.70;;;;;;;;;;4958971;28;20034;-82
2022/10/24 09:06:09;;;;;;;6.97;1.92;;;;;;;;;;4971377;28;20050;-80
2022/10/24 09:08:39;;;;;;;6.55;1.60;;;;;;;;;;4957542;28;20355;-81
2022/10/24 09:11:06;;;;;;;6.28;1.70;;;;;;;;;;4942144;28;20031;-80
2022/10/24 09:13:34;;;;;;;28.17;2.10;;;;;;;;;;4957392;28;20033;-80
2022/10/24 09:16:00;;;;;;;7.03;1.83;;;;;;;;;;4957635;28;20102;-81
2022/10/24 09:18:35;;;;;;;5.93;1.20;;;;;;;;;;4945432;29;20102;-81
2022/10/24 09:21:01;;;;;;;4.72;1.50;;;;;;;;;;4954592;28;20051;-81
2022/10/24 09:23:27;;;;;;;5.35;1.40;;;;;;;;;;4971032;28;20502;-81
2022/10/24 09:25:57;;;;;;;7.55;1.58;;;;;;;;;;4938674;29;20035;-80
2022/10/24 09:28:23;;;;;;;7.53;1.60;;;;;;;;;;4966206;28;20049;-81
2022/10/24 09:30:49;;;;;;;5.78;1.60;;;;;;;;;;4975229;28;20057;-80
2022/10/24 09:33:27;;;;;;;15.32;1.50;;;;;;;;;;4973779;28;20497;-80
2022/10/24 09:35:59;;;;;;;11.57;1.40;;;;;;;;;;4974062;28;20116;-80
2022/10/24 09:38:29;;;;;;;12.40;1.52;;;;;;;;;;4967091;28;20019;-80
2022/10/24 09:40:57;;;;;;;4.57;1.30;;;;;;;;;;4954471;29;20035;-79
2022/10/24 09:43:43;;;;;;;5.65;1.45;;;;;;;;;;4955702;28;20031;-80
2022/10/24 09:46:10;;;;;;;10.07;1.63;;;;;;;;;;4955999;28;20433;-81
2022/10/24 09:48:45;;;;;;;4.95;1.52;;;;;;;;;;4955291;28;20479;-80
2022/10/24 09:51:36;;;;;;;5.38;1.27;;;;;;;;;;4954806;29;20390;-80
2022/10/24 09:54:17;;;;;;;5.45;1.45;;;;;;;;;;4955035;28;20034;-80
2022/10/24 09:56:42;;;;;;;9.65;1.40;;;;;;;;;;4955897;28;20031;-81
2022/10/24 09:59:17;;;;;;;10.13;1.40;;;;;;;;;;4954786;28;20062;-81
2022/10/24 10:01:44;;;;;;;10.80;1.52;;;;;;;;;;4956034;28;20027;-81
2022/10/24 10:04:15;;;;;;;9.32;1.60;;;;;;;;;;4956025;28;20078;-82
2022/10/24 10:06:48;;;;;;;4.85;1.33;;;;;;;;;;4954895;29;20553;-82
2022/10/24 10:09:21;;;;;;;11.95;1.70;;;;;;;;;;4958154;28;20102;-81
2022/10/24 10:11:54;;;;;;;6.00;1.45;;;;;;;;;;4954671;29;20035;-81
2022/10/24 10:14:25;;;;;;;8.88;1.77;;;;;;;;;;4939007;28;20035;-81
2022/10/24 10:16:59;;;;;;;8.07;1.52;;;;;;;;;;4955210;29;20019;-81
2022/10/24 10:19:25;;;;;;;10.60;1.60;;;;;;;;;;4974661;28;20037;-81
2022/10/24 10:22:01;;;;;;;8.90;1.58;;;;;;;;;;4962436;28;20470;-82
2022/10/24 10:24:41;;;;;;;4.38;1.50;;;;;;;;;;4977991;28;20442;-81
2022/10/24 10:27:31;;;;;;;6.88;1.63;;;;;;;;;;4958442;28;20390;-81
2022/10/24 10:30:23;;;;;;;8.93;1.40;;;;;;;;;;4961650;28;20050;-82
2022/10/24 10:32:51;;;;;;;6.28;1.33;;;;;;;;;;4962404;28;20035;-81
2022/10/24 10:35:47;;;;;;;13.20;1.88;;;;;;;;;;4958616;29;20078;-81
2022/10/24 10:38:39;;;;;;;5.68;1.15;;;;;;;;;;4958588;28;20486;-79
2022/10/24 10:41:41;;;;;;;8.13;1.40;;;;;;;;;;4942077;29;20067;-79
2022/10/24 10:44:17;;;;;;;4.32;1.10;;;;;;;;;;4958378;28;20169;-80
2022/10/24 10:46:52;;;;;;;6.90;1.63;;;;;;;;;;4958417;29;20027;-80
2022/10/24 10:49:53;;;;;;;4.95;1.17;;;;;;;;;;4959781;28;20029;-80
2022/10/24 10:52:29;;;;;;;8.40;1.23;;;;;;;;;;4962499;28;20502;-79
2022/10/24 10:55:16;;;;;;;6.50;1.23;;;;;;;;;;4941618;29;20098;-80
2022/10/24 10:57:51;;;;;;;4.22;1.30;;;;;;;;;;4956200;29;20015;-78
2022/10/24 11:01:05;;;;;;;5.65;1.40;;;;;;;;;;4940458;29;20051;-79
2022/10/24 11:03:51;;;;;;;5.45;1.20;;;;;;;;;;4939197;28;20542;-79
2022/10/24 11:06:38;;;;;;;7.43;1.23;;;;;;;;;;4958520;29;20027;-79
2022/10/24 11:09:17;;;;;;;4.43;1.50;;;;;;;;;;4957639;28;20101;-78
2022/10/24 11:11:52;;;;;;;5.50;1.30;;;;;;;;;;4957268;29;20085;-78
2022/10/24 11:14:36;;;;;;;5.47;1.23;;;;;;;;;;4956904;29;20042;-78
2022/10/24 11:17:09;;;;;;;4.60;1.20;;;;;;;;;;4957681;29;20422;-78
2022/10/24 11:19:43;;;;;;;5.82;1.27;;;;;;;;;;4956708;28;20407;-78
2022/10/24 11:22:24;;;;;;;5.45;1.27;;;;;;;;;;4956703;29;20046;-79
2022/10/24 11:25:00;;;;;;;3.90;1.08;;;;;;;;;;4956539;29;20055;-79
2022/10/24 11:27:36;;;;;;;10.32;1.60;;;;;;;;;;4956541;28;20066;-78
2022/10/24 11:30:13;;;;;;;4.50;1.48;;;;;;;;;;4956328;28;20098;-78
2022/10/24 11:32:54;;;;;;;4.95;1.45;;;;;;;;;;4956300;29;20030;-78
2022/10/24 11:35:31;;;;;;;8.30;1.73;;;;;;;;;;4956499;29;20027;-78
2022/10/24 11:38:19;;;;;;;8.38;1.55;;;;;;;;;;4956687;28;20030;-79
2022/10/24 11:40:47;;;;;;;3.95;1.25;;;;;;;;;;4988543;28;20035;-78
2022/10/24 11:43:19;;;;;;;4.10;1.23;;;;;;;;;;4940200;29;20039;-78
2022/10/24 11:45:54;;;;;;;6.03;1.23;;;;;;;;;;4956301;29;20038;-78
2022/10/24 11:48:41;;;;;;;4.18;1.02;;;;;;;;;;4956582;29;20050;-78
2022/10/24 11:51:13;;;;;;;4.43;1.27;;;;;;;;;;4956198;28;20086;-78
2022/10/24 11:54:00;;;;;;;3.17;1.17;;;;;;;;;;4988481;28;20367;-79
2022/10/24 11:57:13;;;;;;;3.33;1.10;;;;;;;;;;4972230;28;20030;-78
2022/10/24 11:59:39;;;;;;;2.97;1.00;;;;;;;;;;4960628;28;20043;-78
2022/10/24 12:02:41;;;;;;;4.82;1.08;;;;;;;;;;4956048;29;20042;-79
2022/10/24 12:05:24;;;;;;;4.40;1.38;;;;;;;;;;4957372;28;20488;-78
2022/10/24 12:07:49;;;;;;;8.80;1.37;;;;;;;;;;4957400;28;20042;-79
2022/10/24 12:10:40;;;;;;;5.20;1.25;;;;;;;;;;4955784;29;20031;-79
2022/10/24 12:13:32;;;;;;;10.55;1.58;;;;;;;;;;4955898;29;20110;-78
2022/10/24 12:16:20;;;;;;;3.70;1.25;;;;;;;;;;4957905;28;20043;-80
2022/10/24 12:18:59;;;;;;;6.50;1.25;;;;;;;;;;4954245;29;20030;-81
2022/10/24 12:21:27;;;;;;;3.22;0.95;;;;;;;;;;4938453;28;20129;-80
2022/10/24 12:23:56;;;;;;;8.20;1.50;;;;;;;;;;4956245;29;20023;-81
2022/10/24 12:26:29;;;;;;;9.38;1.45;;;;;;;;;;4957407;28;20042;-80
2022/10/24 12:28:57;;;;;;;7.93;1.55;;;;;;;;;;4957101;29;20031;-81
2022/10/24 12:31:28;;;;;;;4.45;1.02;;;;;;;;;;4953487;29;20027;-81
2022/10/24 12:34:18;;;;;;;8.32;1.42;;;;;;;;;;4956352;29;20034;-82
2022/10/24 12:37:02;;;;;;;5.78;1.35;;;;;;;;;;4957236;28;20052;-81
2022/10/24 12:39:31;;;;;;;;;;;;;;;;;;4956074;28;20414;-80
2022/10/24 12:41:58;;;;;;;3.55;1.00;;;;;;;;;;4957654;28;19914;-80
2022/10/24 12:44:44;;;;;;;5.78;1.45;;;;;;;;;;4956860;28;20054;-81
2022/10/24 12:47:34;;;;;;;3.80;1.20;;;;;;;;;;4956850;28;20445;-80
2022/10/24 12:50:21;;;;;;;2.85;1.17;;;;;;;;;;4956199;28;20042;-80
2022/10/24 12:52:47;;;;;;;6.30;1.30;;;;;;;;;;4955990;29;20046;-81
2022/10/24 12:55:27;;;;;;;6.55;1.20;;;;;;;;;;4956393;28;20390;-81
2022/10/24 12:57:53;;;;;;;8.82;1.88;;;;;;;;;;4954482;28;20030;-81
2022/10/24 13:00:32;;;;;;;5.03;1.33;;;;;;;;;;4957923;28;20051;-80
2022/10/24 13:03:20;;;;;;;4.95;1.20;;;;;;;;;;4954444;29;20035;-81
2022/10/24 13:05:58;;;;;;;3.60;1.10;;;;;;;;;;4954423;28;20035;-80
2022/10/24 13:08:34;;;;;;;4.60;1.50;;;;;;;;;;4955857;28;20042;-81
2022/10/24 13:11:08;;;;;;;4.15;1.52;;;;;;;;;;4939316;29;20058;-81
2022/10/24 13:14:11;;;;;;;4.50;1.35;;;;;;;;;;4955504;28;20106;-81
2022/10/24 13:16:57;;;;;;;6.28;1.45;;;;;;;;;;4955421;28;20475;-81
2022/10/24 13:19:23;;;;;;;3.03;1.23;;;;;;;;;;4955820;28;20019;-81
2022/10/24 13:21:53;;;;;;;7.00;1.20;;;;;;;;;;4937804;28;20664;-82
2022/10/24 13:24:33;;;;;;;5.00;1.10;;;;;;;;;;4954395;28;20028;-81
2022/10/24 13:27:05;;;;;;;2.70;1.20;;;;;;;;;;4955905;29;20051;-81
2022/10/24 13:29:30;;;;;;;5.50;1.40;;;;;;;;;;4956981;28;20042;-81
2022/10/24 13:32:05;;;;;;;5.32;1.33;;;;;;;;;;4957971;28;20023;-81
2022/10/24 13:34:48;;;;;;;3.15;1.20;;;;;;;;;;4960632;28;20023;-81
2022/10/24 13:37:23;;;;;;;3.83;1.52;;;;;;;;;;4961233;28;20078;-81
2022/10/24 13:40:16;;;;;;;4.47;1.42;;;;;;;;;;4960761;29;20030;-79
2022/10/24 13:42:49;;;;;;;4.43;1.80;;;;;;;;;;4957077;28;20039;-79
2022/10/24 13:45:20;;;;;;;;;;;;;;;;;;4942218;29;20474;-79
2022/10/24 13:47:50;;;;;;;5.57;1.52;;;;;;;;;;4956092;29;19910;-79
2022/10/24 13:50:26;;;;;;;4.90;1.20;;;;;;;;;;4957100;28;20031;-79
2022/10/24 13:52:56;;;;;;;4.07;1.20;;;;;;;;;;4955603;29;20433;-78
2022/10/24 13:55:42;;;;;;;8.25;1.50;;;;;;;;;;4953964;28;20019;-79
2022/10/24 13:58:14;;;;;;;6.22;1.40;;;;;;;;;;4954670;29;20039;-78
2022/10/24 14:00:58;;;;;;;5.43;1.30;;;;;;;;;;4954547;29;20069;-79
2022/10/24 14:03:26;;;;;;;6.07;1.23;;;;;;;;;;4954046;29;20552;-78
2022/10/24 14:05:58;;;;;;;4.30;1.27;;;;;;;;;;4957505;29;20127;-79
2022/10/24 14:08:46;;;;;;;6.38;1.42;;;;;;;;;;4957522;28;20058;-80
2022/10/24 14:11:32;;;;;;;4.15;1.50;;;;;;;;;;4955698;29;20171;-80
2022/10/24 14:14:00;;;;;;;4.55;1.30;;;;;;;;;;4956486;29;20098;-79
2022/10/24 14:16:27;;;;;;;8.73;1.73;;;;;;;;;;4956293;29;20033;-79
2022/10/24 14:19:10;;;;;;;9.50;1.65;;;;;;;;;;4957412;28;20466;-79
2022/10/24 14:21:41;;;;;;;3.75;1.40;;;;;;;;;;4956321;29;20059;-79
2022/10/24 14:24:08;;;;;;;7.13;1.45;;;;;;;;;;4956586;29;20082;-78
2022/10/24 14:26:34;;;;;;;5.32;1.83;;;;;;;;;;4972577;28;20125;-78
2022/10/24 14:28:59;;;;;;;4.30;1.33;;;;;;;;;;4958223;29;20063;-79
2022/10/24 14:31:34;;;;;;;2.83;1.30;;;;;;;;;;4957045;28;20070;-80
2022/10/24 14:34:01;;;;;;;4.68;1.50;;;;;;;;;;4956761;29;20059;-79
2022/10/24 14:36:29;;;;;;;5.13;1.35;;;;;;;;;;4956381;29;20063;-80
2022/10/24 14:38:57;;;;;;;5.20;1.50;;;;;;;;;;4955377;29;20035;-79
2022/10/24 14:41:32;;;;;;;4.38;1.42;;;;;;;;;;4955770;28;20038;-78
2022/10/24 14:43:58;;;;;;;6.05;1.50;;;;;;;;;;4956801;29;20475;-78
2022/10/24 14:46:37;;;;;;;4.00;1.35;;;;;;;;;;4955508;28;20054;-80
2022/10/24 14:49:25;;;;;;;5.43;1.88;;;;;;;;;;4939191;29;20086;-80
2022/10/24 14:51:52;;;;;;;4.10;1.55;;;;;;;;;;4958013;29;20470;-81
2022/10/24 14:54:45;;;;;;;7.55;1.60;;;;;;;;;;4957890;29;20042;-80
2022/10/24 14:57:20;;;;;;;4.68;1.30;;;;;;;;;;4958598;29;20035;-80
2022/10/24 14:59:47;;;;;;;4.53;1.65;;;;;;;;;;4955055;28;20079;-81
2022/10/24 15:02:24;;;;;;;8.30;1.75;;;;;;;;;;4957077;28;20031;-78
2022/10/24 15:04:50;;;;;;;8.45;1.70;;;;;;;;;;4970652;28;20031;-78
2022/10/24 15:07:22;;;;;;;6.78;1.40;;;;;;;;;;4963674;28;20023;-81
2022/10/24 15:10:23;;;;;;;3.72;1.38;;;;;;;;;;4960197;29;20510;-79